createdAt,value
2022-10-25T00:00:01.123Z,0.00
2022-10-25T00:01:01.111Z,0.00
2022-10-25T00:02:01.231Z,0.00
2022-10-25T00:03:01.089Z,0.00
2022-10-25T00:04:01.034Z,0.00
2022-10-25T00:05:01.013Z,0.00
2022-10-25T00:06:01.003Z,0.00
2022-10-25T00:07:00.973Z,0.00
2022-10-25T00:08:00.995Z,0.00
2022-10-25T00:09:00.947Z,0.00
2022-10-25T00:10:00.924Z,0.00
2022-10-25T00:11:00.921Z,0.00
2022-10-25T00:12:00.904Z,0.00
2022-10-25T00:13:00.905Z,0.00
2022-10-25T00:14:00.864Z,0.00
2022-10-25T00:15:00.850Z,0.00
2022-10-25T00:16:00.821Z,0.00
2022-10-25T00:17:00.809Z,0.00
2022-10-25T00:18:01.829Z,0.00
2022-10-25T00:19:00.776Z,0.00
2022-10-25T00:20:00.758Z,0.00
2022-10-25T00:21:00.743Z,0.00
2022-10-25T00:22:01.740Z,0.00
2022-10-25T00:23:00.742Z,0.00
2022-10-25T00:24:00.687Z,0.00
2022-10-25T00:25:00.676Z,0.00
2022-10-25T00:26:00.669Z,0.00
2022-10-25T00:27:00.641Z,0.00
2022-10-25T00:28:00.653Z,0.00
2022-10-25T00:29:00.599Z,0.00
2022-10-25T00:30:00.605Z,0.00
2022-10-25T00:31:00.602Z,0.00
2022-10-25T00:32:00.564Z,0.00
2022-10-25T00:33:00.576Z,0.00
2022-10-25T00:34:00.527Z,0.00
2022-10-25T00:35:00.520Z,0.00
2022-10-25T00:36:00.495Z,0.00
2022-10-25T00:37:00.495Z,0.00
2022-10-25T00:38:00.497Z,0.00
2022-10-25T00:39:00.457Z,0.00
2022-10-25T00:40:00.423Z,0.00
2022-10-25T00:41:00.397Z,0.00
2022-10-25T00:42:00.384Z,0.00
2022-10-25T00:43:00.427Z,0.00
2022-10-25T00:44:00.347Z,0.00
2022-10-25T00:45:00.342Z,0.00
2022-10-25T00:47:01.295Z,0.00
2022-10-25T00:48:00.313Z,0.00
2022-10-25T00:49:00.270Z,0.00
2022-10-25T00:50:00.251Z,0.00
2022-10-25T00:51:00.232Z,0.00
2022-10-25T00:52:00.213Z,0.00
2022-10-25T00:53:00.222Z,0.00
2022-10-25T00:54:00.172Z,0.00
2022-10-25T00:55:00.161Z,0.00
2022-10-25T00:56:00.145Z,0.00
2022-10-25T00:57:00.132Z,0.00
2022-10-25T00:58:00.149Z,0.00
2022-10-25T00:59:00.096Z,0.00
2022-10-25T01:00:00.093Z,0.00
2022-10-25T01:01:00.058Z,0.00
2022-10-25T01:02:00.180Z,0.00
2022-10-25T01:03:00.065Z,0.00
2022-10-25T01:04:00.022Z,0.00
2022-10-25T01:04:59.985Z,0.00
2022-10-25T01:05:59.979Z,0.00
2022-10-25T01:06:59.958Z,0.00
2022-10-25T01:07:59.985Z,0.00
2022-10-25T01:08:59.924Z,0.00
2022-10-25T01:09:59.907Z,0.00
2022-10-25T01:10:59.888Z,0.00
2022-10-25T01:11:59.869Z,0.00
2022-10-25T01:12:59.865Z,0.00
2022-10-25T01:13:59.897Z,0.00
2022-10-25T01:14:59.830Z,0.00
2022-10-25T01:15:59.813Z,0.00
2022-10-25T01:16:59.793Z,0.00
2022-10-25T01:17:59.815Z,0.00
2022-10-25T01:18:59.786Z,0.00
2022-10-25T01:19:59.756Z,0.00
2022-10-25T01:20:59.734Z,0.00
2022-10-25T01:21:59.738Z,0.00
2022-10-25T01:22:59.701Z,0.00
2022-10-25T01:23:59.721Z,0.00
2022-10-25T01:24:59.655Z,0.00
2022-10-25T01:25:59.634Z,0.00
2022-10-25T01:26:59.625Z,0.00
2022-10-25T01:27:59.628Z,0.00
2022-10-25T01:28:59.636Z,0.00
2022-10-25T01:29:59.581Z,0.00
2022-10-25T01:30:59.553Z,0.00
2022-10-25T01:31:59.543Z,0.00
2022-10-25T01:32:59.516Z,0.00
2022-10-25T01:33:59.532Z,0.00
2022-10-25T01:34:59.481Z,0.00
2022-10-25T01:35:59.462Z,0.00
2022-10-25T01:36:59.446Z,0.00
2022-10-25T01:37:59.433Z,0.00
2022-10-25T01:38:59.447Z,0.00
2022-10-25T01:39:59.394Z,0.00
2022-10-25T01:40:59.382Z,0.00
2022-10-25T01:41:59.362Z,0.00
2022-10-25T01:42:59.345Z,0.00
2022-10-25T01:43:59.374Z,0.00
2022-10-25T01:44:59.312Z,0.00
2022-10-25T01:45:59.293Z,0.00
2022-10-25T01:46:59.294Z,0.00
2022-10-25T01:47:59.252Z,0.00
2022-10-25T01:48:59.286Z,0.00
2022-10-25T01:49:59.235Z,0.00
2022-10-25T01:50:59.213Z,0.00
2022-10-25T01:51:59.210Z,0.00
2022-10-25T01:52:59.191Z,0.00
2022-10-25T01:53:59.199Z,0.00
2022-10-25T01:54:59.148Z,0.00
2022-10-25T01:55:59.126Z,0.00
2022-10-25T01:56:59.119Z,0.00
2022-10-25T01:57:59.105Z,0.00
2022-10-25T01:58:59.112Z,0.00
2022-10-25T01:59:59.049Z,0.00
2022-10-25T02:00:59.099Z,0.00
2022-10-25T02:01:59.022Z,0.00
2022-10-25T02:02:59.003Z,0.00
2022-10-25T02:03:59.019Z,0.00
2022-10-25T02:04:58.963Z,0.00
2022-10-25T02:05:58.956Z,0.00
2022-10-25T02:06:58.931Z,0.00
2022-10-25T02:07:58.920Z,0.00
2022-10-25T02:08:58.928Z,0.00
2022-10-25T02:09:58.929Z,0.00
2022-10-25T02:10:58.862Z,0.00
2022-10-25T02:11:58.849Z,0.00
2022-10-25T02:12:58.827Z,0.00
2022-10-25T02:13:58.859Z,0.00
2022-10-25T02:14:58.792Z,0.00
2022-10-25T02:15:58.772Z,0.00
2022-10-25T02:16:58.756Z,0.00
2022-10-25T02:17:58.742Z,0.00
2022-10-25T02:18:58.758Z,0.00
2022-10-25T02:19:58.710Z,0.00
2022-10-25T02:20:58.706Z,0.00
2022-10-25T02:21:58.675Z,0.00
2022-10-25T02:22:58.661Z,0.00
2022-10-25T02:23:58.678Z,0.00
2022-10-25T02:24:58.629Z,0.00
2022-10-25T02:25:58.604Z,0.00
2022-10-25T02:26:58.591Z,0.00
2022-10-25T02:27:58.572Z,0.00
2022-10-25T02:28:58.594Z,0.00
2022-10-25T02:29:58.557Z,0.00
2022-10-25T02:30:58.521Z,0.00
2022-10-25T02:31:58.512Z,0.00
2022-10-25T02:32:58.482Z,0.00
2022-10-25T02:33:58.503Z,0.00
2022-10-25T02:34:58.450Z,0.00
2022-10-25T02:35:58.452Z,0.00
2022-10-25T02:36:58.418Z,0.00
2022-10-25T02:37:58.407Z,0.00
2022-10-25T02:38:58.424Z,0.00
2022-10-25T02:39:58.375Z,0.00
2022-10-25T02:40:58.363Z,0.00
2022-10-25T02:41:58.339Z,0.00
2022-10-25T02:42:58.329Z,0.00
2022-10-25T02:43:58.354Z,0.00
2022-10-25T02:44:58.292Z,0.00
2022-10-25T02:45:58.278Z,0.00
2022-10-25T02:46:58.267Z,0.00
2022-10-25T02:47:58.237Z,0.00
2022-10-25T02:48:58.260Z,0.00
2022-10-25T02:49:58.216Z,0.00
2022-10-25T02:50:58.200Z,0.00
2022-10-25T02:51:58.180Z,0.00
2022-10-25T02:52:58.170Z,0.00
2022-10-25T02:53:58.172Z,0.00
2022-10-25T02:54:58.124Z,0.00
2022-10-25T02:55:58.124Z,0.00
2022-10-25T02:56:58.089Z,0.00
2022-10-25T02:57:58.084Z,0.00
2022-10-25T02:58:58.095Z,0.00
2022-10-25T02:59:58.085Z,0.00
2022-10-25T03:00:58.063Z,0.00
2022-10-25T03:01:58.071Z,0.00
2022-10-25T03:02:57.986Z,0.00
2022-10-25T03:03:58.013Z,0.00
2022-10-25T03:04:57.948Z,0.00
2022-10-25T03:05:57.936Z,0.00
2022-10-25T03:06:57.921Z,0.00
2022-10-25T03:07:57.905Z,0.00
2022-10-25T03:08:57.917Z,0.00
2022-10-25T03:09:57.866Z,0.00
2022-10-25T03:10:57.894Z,0.00
2022-10-25T03:11:57.844Z,0.00
2022-10-25T03:12:57.844Z,0.00
2022-10-25T03:13:57.854Z,0.00
2022-10-25T03:14:57.807Z,0.00
2022-10-25T03:15:57.781Z,0.00
2022-10-25T03:16:57.761Z,0.00
2022-10-25T03:17:57.721Z,0.00
2022-10-25T03:18:58.751Z,0.00
2022-10-25T03:19:57.701Z,0.00
2022-10-25T03:20:57.682Z,0.00
2022-10-25T03:21:57.681Z,0.00
2022-10-25T03:22:57.670Z,0.00
2022-10-25T03:23:57.669Z,0.00
2022-10-25T03:24:57.639Z,0.00
2022-10-25T03:25:57.611Z,0.00
2022-10-25T03:26:57.580Z,0.00
2022-10-25T03:27:57.578Z,0.00
2022-10-25T03:28:57.594Z,0.00
2022-10-25T03:29:58.538Z,0.00
2022-10-25T03:30:57.521Z,0.00
2022-10-25T03:31:57.508Z,0.00
2022-10-25T03:32:57.501Z,0.00
2022-10-25T03:33:57.496Z,0.00
2022-10-25T03:34:57.460Z,0.00
2022-10-25T03:35:57.435Z,0.00
2022-10-25T03:36:57.432Z,0.00
2022-10-25T03:37:57.435Z,0.00
2022-10-25T03:38:57.442Z,0.00
2022-10-25T03:39:57.415Z,0.00
2022-10-25T03:40:57.381Z,0.00
2022-10-25T03:41:57.336Z,0.00
2022-10-25T03:42:57.321Z,0.00
2022-10-25T03:43:57.335Z,0.00
2022-10-25T03:44:57.286Z,0.00
2022-10-25T03:45:57.267Z,0.00
2022-10-25T03:46:57.253Z,0.00
2022-10-25T03:47:57.235Z,0.00
2022-10-25T03:48:57.251Z,0.00
2022-10-25T03:49:57.205Z,0.00
2022-10-25T03:50:57.173Z,0.00
2022-10-25T03:51:59.992Z,0.00
2022-10-25T03:52:58.231Z,0.00
2022-10-25T03:53:57.161Z,0.00
2022-10-25T03:54:57.106Z,0.00
2022-10-25T03:55:57.106Z,0.00
2022-10-25T03:56:57.162Z,0.00
2022-10-25T03:57:57.170Z,0.00
2022-10-25T03:58:57.080Z,0.00
2022-10-25T03:59:57.030Z,0.00
2022-10-25T04:00:57.080Z,0.00
2022-10-25T04:01:58.048Z,0.00
2022-10-25T04:03:00.939Z,0.00
2022-10-25T04:03:59.001Z,0.00
2022-10-25T04:04:56.943Z,0.00
2022-10-25T04:05:56.919Z,0.00
2022-10-25T04:06:56.903Z,0.00
2022-10-25T04:07:56.887Z,0.00
2022-10-25T04:08:56.914Z,0.00
2022-10-25T04:09:56.845Z,0.00
2022-10-25T04:10:56.851Z,0.00
2022-10-25T04:11:56.813Z,0.00
2022-10-25T04:12:56.816Z,0.00
2022-10-25T04:13:56.819Z,0.00
2022-10-25T04:14:56.779Z,0.00
2022-10-25T04:15:56.744Z,0.00
2022-10-25T04:16:56.736Z,0.00
2022-10-25T04:17:56.711Z,0.00
2022-10-25T04:18:56.730Z,0.00
2022-10-25T04:19:56.675Z,0.00
2022-10-25T04:20:56.668Z,0.00
2022-10-25T04:21:56.648Z,0.00
2022-10-25T04:22:56.676Z,0.00
2022-10-25T04:23:58.294Z,0.00
2022-10-25T04:24:56.589Z,0.00
2022-10-25T04:25:56.590Z,0.00
2022-10-25T04:26:56.559Z,0.00
2022-10-25T04:27:56.538Z,0.00
2022-10-25T04:28:56.563Z,0.00
2022-10-25T04:29:56.525Z,0.00
2022-10-25T04:30:56.487Z,0.00
2022-10-25T04:31:56.487Z,0.00
2022-10-25T04:32:56.459Z,0.00
2022-10-25T04:33:56.476Z,0.00
2022-10-25T04:34:56.429Z,0.00
2022-10-25T04:35:56.422Z,0.00
2022-10-25T04:36:56.422Z,0.00
2022-10-25T04:37:56.377Z,0.00
2022-10-25T04:38:56.356Z,0.00
2022-10-25T04:39:56.392Z,0.00
2022-10-25T04:40:56.340Z,0.00
2022-10-25T04:41:56.334Z,0.00
2022-10-25T04:42:56.294Z,0.00
2022-10-25T04:43:56.272Z,0.00
2022-10-25T04:44:56.275Z,0.00
2022-10-25T04:45:56.240Z,0.00
2022-10-25T04:46:56.238Z,0.00
2022-10-25T04:47:57.208Z,0.00
2022-10-25T04:48:56.188Z,0.00
2022-10-25T04:49:56.197Z,0.00
2022-10-25T04:50:56.145Z,0.00
2022-10-25T04:51:57.137Z,0.00
2022-10-25T04:52:56.125Z,0.00
2022-10-25T04:53:56.101Z,0.00
2022-10-25T04:54:56.132Z,0.00
2022-10-25T04:55:56.060Z,0.00
2022-10-25T04:56:56.061Z,0.00
2022-10-25T04:57:56.025Z,0.00
2022-10-25T04:58:56.023Z,0.00
2022-10-25T04:59:56.024Z,0.00
2022-10-25T05:00:55.980Z,0.00
2022-10-25T05:01:55.978Z,0.00
2022-10-25T05:02:55.993Z,0.00
2022-10-25T05:03:55.936Z,0.00
2022-10-25T05:04:55.944Z,0.00
2022-10-25T05:05:55.901Z,0.00
2022-10-25T05:06:55.874Z,0.00
2022-10-25T05:07:55.870Z,0.00
2022-10-25T05:08:55.842Z,0.00
2022-10-25T05:09:55.874Z,0.00
2022-10-25T05:10:55.805Z,0.00
2022-10-25T05:11:55.796Z,0.00
2022-10-25T05:12:55.771Z,0.00
2022-10-25T05:13:55.754Z,0.00
2022-10-25T05:14:55.771Z,0.00
2022-10-25T05:15:55.722Z,0.00
2022-10-25T05:16:55.719Z,0.00
2022-10-25T05:17:55.742Z,0.00
2022-10-25T05:18:55.682Z,0.00
2022-10-25T05:19:55.684Z,0.00
2022-10-25T05:20:55.648Z,0.00
2022-10-25T05:21:55.648Z,0.00
2022-10-25T05:22:55.606Z,0.00
2022-10-25T05:23:58.946Z,0.00
2022-10-25T05:24:57.618Z,0.00
2022-10-25T05:25:55.567Z,0.00
2022-10-25T05:26:55.540Z,0.00
2022-10-25T05:27:55.531Z,0.00
2022-10-25T05:28:55.538Z,0.00
2022-10-25T05:29:55.509Z,0.00
2022-10-25T05:30:55.464Z,0.00
2022-10-25T05:31:55.453Z,0.00
2022-10-25T05:32:55.456Z,0.00
2022-10-25T05:33:55.426Z,4.00
2022-10-25T05:34:55.450Z,4.00
2022-10-25T05:35:55.494Z,0.00
2022-10-25T05:36:55.372Z,8.00
2022-10-25T05:37:55.371Z,8.00
2022-10-25T05:38:55.352Z,8.00
2022-10-25T05:39:55.346Z,8.00
2022-10-25T05:40:55.364Z,12.00
2022-10-25T05:41:55.284Z,16.00
2022-10-25T05:42:55.262Z,20.00
2022-10-25T05:43:55.249Z,24.00
2022-10-25T05:44:55.304Z,32.00
2022-10-25T05:45:55.244Z,40.00
2022-10-25T05:46:55.209Z,48.00
2022-10-25T05:47:57.058Z,56.00
2022-10-25T05:48:55.169Z,60.00
2022-10-25T05:49:55.199Z,60.00
2022-10-25T05:51:03.441Z,60.00
2022-10-25T05:51:57.111Z,64.00
2022-10-25T05:52:55.097Z,68.00
2022-10-25T05:53:55.081Z,72.00
2022-10-25T05:54:55.109Z,72.00
2022-10-25T05:55:55.058Z,80.00
2022-10-25T05:56:55.023Z,96.00
2022-10-25T05:57:55.017Z,120.00
2022-10-25T05:58:55.005Z,148.00
2022-10-25T05:59:55.017Z,180.00
2022-10-25T06:00:54.996Z,236.00
2022-10-25T06:01:55.048Z,284.00
2022-10-25T06:02:54.930Z,324.00
2022-10-25T06:03:54.911Z,360.00
2022-10-25T06:04:54.925Z,380.00
2022-10-25T06:05:54.887Z,360.00
2022-10-25T06:06:54.884Z,324.00
2022-10-25T06:07:54.844Z,296.00
2022-10-25T06:08:54.823Z,288.00
2022-10-25T06:09:54.849Z,296.00
2022-10-25T06:10:54.808Z,284.00
2022-10-25T06:11:54.782Z,264.00
2022-10-25T06:12:54.778Z,276.00
2022-10-25T06:13:54.777Z,280.00
2022-10-25T06:14:54.756Z,276.00
2022-10-25T06:15:54.705Z,260.00
2022-10-25T06:16:54.709Z,232.00
2022-10-25T06:17:54.672Z,220.00
2022-10-25T06:18:54.671Z,232.00
2022-10-25T06:19:54.671Z,224.00
2022-10-25T06:20:54.636Z,212.00
2022-10-25T06:21:54.609Z,192.00
2022-10-25T06:22:54.587Z,216.00
2022-10-25T06:23:54.566Z,284.00
2022-10-25T06:24:54.600Z,300.00
2022-10-25T06:25:54.551Z,264.00
2022-10-25T06:26:54.513Z,260.00
2022-10-25T06:27:54.538Z,316.00
2022-10-25T06:28:54.489Z,420.00
2022-10-25T06:29:54.498Z,532.00
2022-10-25T06:30:54.444Z,632.00
2022-10-25T06:31:54.445Z,816.00
2022-10-25T06:32:54.427Z,1000.00
2022-10-25T06:33:54.414Z,1032.00
2022-10-25T06:34:54.417Z,1084.00
2022-10-25T06:35:54.367Z,1180.00
2022-10-25T06:36:54.348Z,1168.00
2022-10-25T06:37:54.327Z,1140.00
2022-10-25T06:38:54.333Z,1304.00
2022-10-25T06:39:54.326Z,1360.00
2022-10-25T06:40:54.292Z,1356.00
2022-10-25T06:41:54.276Z,1212.00
2022-10-25T06:42:54.302Z,1088.00
2022-10-25T06:43:54.283Z,1004.00
2022-10-25T06:44:54.205Z,932.00
2022-10-25T06:45:54.191Z,896.00
2022-10-25T06:47:18.740Z,848.00
2022-10-25T06:47:56.677Z,836.00
2022-10-25T06:48:54.182Z,808.00
2022-10-25T06:49:54.222Z,816.00
2022-10-25T06:50:54.113Z,856.00
2022-10-25T06:51:54.091Z,824.00
2022-10-25T06:52:54.075Z,792.00
2022-10-25T06:53:54.085Z,812.00
2022-10-25T06:54:54.037Z,776.00
2022-10-25T06:55:54.011Z,744.00
2022-10-25T06:56:54.002Z,744.00
2022-10-25T06:57:54.008Z,712.00
2022-10-25T06:58:53.996Z,664.00
2022-10-25T06:59:53.966Z,608.00
2022-10-25T07:00:53.979Z,528.00
2022-10-25T07:01:53.991Z,452.00
2022-10-25T07:02:53.901Z,396.00
2022-10-25T07:03:53.890Z,356.00
2022-10-25T07:04:53.904Z,332.00
2022-10-25T07:05:53.854Z,320.00
2022-10-25T07:06:55.329Z,312.00
2022-10-25T07:07:53.844Z,320.00
2022-10-25T07:08:53.841Z,332.00
2022-10-25T07:09:53.785Z,348.00
2022-10-25T07:10:53.763Z,368.00
2022-10-25T07:11:53.743Z,408.00
2022-10-25T07:12:53.729Z,468.00
2022-10-25T07:13:53.716Z,564.00
2022-10-25T07:14:53.741Z,680.00
2022-10-25T07:15:53.678Z,808.00
2022-10-25T07:16:53.702Z,936.00
2022-10-25T07:17:53.648Z,1056.00
2022-10-25T07:18:53.638Z,1172.00
2022-10-25T07:19:53.651Z,1284.00
2022-10-25T07:20:53.605Z,1420.00
2022-10-25T07:21:53.617Z,1596.00
2022-10-25T07:22:57.772Z,1764.00
2022-10-25T07:23:55.579Z,1924.00
2022-10-25T07:24:53.545Z,2088.00
2022-10-25T07:25:53.540Z,2292.00
2022-10-25T07:26:53.503Z,2468.00
2022-10-25T07:27:53.503Z,2660.00
2022-10-25T07:28:53.473Z,2984.00
2022-10-25T07:29:53.490Z,3168.00
2022-10-25T07:30:53.422Z,3684.00
2022-10-25T07:31:53.426Z,3588.00
2022-10-25T07:32:53.408Z,4176.00
2022-10-25T07:33:53.393Z,4540.00
2022-10-25T07:34:53.414Z,4580.00
2022-10-25T07:36:05.830Z,4760.00
2022-10-25T07:36:54.324Z,5016.00
2022-10-25T07:37:53.317Z,5172.00
2022-10-25T07:38:53.291Z,5084.00
2022-10-25T07:39:53.298Z,4508.00
2022-10-25T07:40:53.257Z,3872.00
2022-10-25T07:41:53.248Z,3280.00
2022-10-25T07:42:53.218Z,2880.00
2022-10-25T07:43:53.210Z,2668.00
2022-10-25T07:44:53.220Z,2480.00
2022-10-25T07:45:53.179Z,2232.00
2022-10-25T07:46:53.170Z,2148.00
2022-10-25T07:47:53.132Z,2256.00
2022-10-25T07:48:53.128Z,2348.00
2022-10-25T07:49:53.140Z,2796.00
2022-10-25T07:50:53.092Z,3320.00
2022-10-25T07:51:53.066Z,3660.00
2022-10-25T07:52:53.066Z,3620.00
2022-10-25T07:53:53.034Z,3432.00
2022-10-25T07:54:53.047Z,3156.00
2022-10-25T07:55:53.010Z,2964.00
2022-10-25T07:56:52.983Z,2816.00
2022-10-25T07:57:52.965Z,2944.00
2022-10-25T07:58:52.953Z,3084.00
2022-10-25T07:59:52.961Z,3208.00
2022-10-25T08:00:52.915Z,3400.00
2022-10-25T08:01:53.502Z,4020.00
2022-10-25T08:02:52.939Z,5344.00
2022-10-25T08:03:52.895Z,7792.00
2022-10-25T08:04:54.341Z,9516.00
2022-10-25T08:05:52.839Z,9944.00
2022-10-25T08:06:52.814Z,12040.00
2022-10-25T08:07:52.801Z,12040.00
2022-10-25T08:08:52.776Z,16768.00
2022-10-25T08:09:52.779Z,47168.00
2022-10-25T08:10:52.736Z,19136.00
2022-10-25T08:11:52.737Z,81760.00
2022-10-25T08:12:52.726Z,11464.00
2022-10-25T08:13:52.718Z,28224.00
2022-10-25T08:14:52.693Z,13564.00
2022-10-25T08:15:52.653Z,13760.00
2022-10-25T08:16:52.675Z,15308.00
2022-10-25T08:17:52.630Z,19648.00
2022-10-25T08:18:52.678Z,23936.00
2022-10-25T08:19:52.600Z,23392.00
2022-10-25T08:21:07.993Z,19232.00
2022-10-25T08:21:54.558Z,18272.00
2022-10-25T08:22:52.563Z,16544.00
2022-10-25T08:23:52.550Z,18848.00
2022-10-25T08:24:52.509Z,23104.00
2022-10-25T08:25:52.494Z,18144.00
2022-10-25T08:26:52.472Z,66048.00
2022-10-25T08:27:52.473Z,17408.00
2022-10-25T08:28:52.462Z,13376.00
2022-10-25T08:29:52.415Z,10892.00
2022-10-25T08:30:52.434Z,11644.00
2022-10-25T08:31:52.379Z,14068.00
2022-10-25T08:32:52.365Z,15360.00
2022-10-25T08:33:52.414Z,20576.00
2022-10-25T08:34:52.335Z,52800.00
2022-10-25T08:35:52.321Z,96224.00
2022-10-25T08:36:52.292Z,98176.00
2022-10-25T08:37:52.293Z,61920.00
2022-10-25T08:38:52.303Z,48000.00
2022-10-25T08:39:54.889Z,34688.00
2022-10-25T08:40:53.232Z,28896.00
2022-10-25T08:41:52.215Z,25728.00
2022-10-25T08:42:52.196Z,64160.00
2022-10-25T08:43:52.279Z,86528.00
2022-10-25T08:44:52.157Z,88224.00
2022-10-25T08:45:52.149Z,89120.00
2022-10-25T08:46:52.122Z,86784.00
2022-10-25T08:47:53.121Z,84512.00
2022-10-25T08:48:52.130Z,86432.00
2022-10-25T08:49:52.085Z,68032.00
2022-10-25T08:50:52.064Z,26048.00
2022-10-25T08:51:52.068Z,28960.00
2022-10-25T08:52:52.042Z,80000.00
2022-10-25T08:53:52.052Z,85824.00
2022-10-25T08:54:52.000Z,82112.00
2022-10-25T08:56:15.539Z,89056.00
2022-10-25T08:57:10.570Z,85760.00
2022-10-25T08:57:53.965Z,87040.00
2022-10-25T08:58:51.976Z,85792.00
2022-10-25T08:59:51.924Z,77120.00
2022-10-25T09:00:51.948Z,41024.00
2022-10-25T09:01:52.025Z,27264.00
2022-10-25T09:02:51.882Z,66944.00
2022-10-25T09:03:51.880Z,13672.00
2022-10-25T09:04:51.832Z,11524.00
2022-10-25T09:05:51.817Z,8484.00
2022-10-25T09:06:51.805Z,6784.00
2022-10-25T09:07:51.801Z,6516.00
2022-10-25T09:08:51.794Z,6260.00
2022-10-25T09:09:51.755Z,8212.00
2022-10-25T09:10:51.728Z,11928.00
2022-10-25T09:11:51.711Z,26432.00
2022-10-25T09:12:51.702Z,26944.00
2022-10-25T09:13:52.714Z,24640.00
2022-10-25T09:14:51.678Z,26944.00
2022-10-25T09:15:51.685Z,48896.00
2022-10-25T09:16:51.637Z,23680.00
2022-10-25T09:17:51.618Z,16800.00
2022-10-25T09:18:51.642Z,19328.00
2022-10-25T09:19:51.600Z,18336.00
2022-10-25T09:20:51.581Z,69440.00
2022-10-25T09:21:51.574Z,26624.00
2022-10-25T09:22:51.536Z,16768.00
2022-10-25T09:23:51.550Z,20384.00
2022-10-25T09:24:52.921Z,14348.00
2022-10-25T09:25:51.494Z,22784.00
2022-10-25T09:26:51.503Z,74784.00
2022-10-25T09:27:51.462Z,49088.00
2022-10-25T09:28:51.472Z,25792.00
2022-10-25T09:29:51.426Z,31040.00
2022-10-25T09:30:51.421Z,23264.00
2022-10-25T09:31:51.390Z,35264.00
2022-10-25T09:32:51.394Z,67072.00
2022-10-25T09:33:51.398Z,75584.00
2022-10-25T09:34:51.354Z,86720.00
2022-10-25T09:35:51.360Z,83104.00
2022-10-25T09:36:51.329Z,77984.00
2022-10-25T09:37:51.321Z,74464.00
2022-10-25T09:38:51.305Z,72736.00
2022-10-25T09:39:51.255Z,72096.00
2022-10-25T09:40:51.294Z,72448.00
2022-10-25T09:41:51.241Z,70496.00
2022-10-25T09:42:51.242Z,11260.00
2022-10-25T09:43:51.241Z,9992.00
2022-10-25T09:44:51.197Z,9600.00
2022-10-25T09:45:51.176Z,8696.00
2022-10-25T09:46:51.150Z,11572.00
2022-10-25T09:47:51.151Z,20704.00
2022-10-25T09:48:51.143Z,12340.00
2022-10-25T09:49:51.168Z,13084.00
2022-10-25T09:50:51.093Z,57856.00
2022-10-25T09:51:51.086Z,13560.00
2022-10-25T09:52:51.082Z,47648.00
2022-10-25T09:53:51.083Z,54080.00
2022-10-25T09:54:51.021Z,12444.00
2022-10-25T09:55:50.994Z,9388.00
2022-10-25T09:56:50.989Z,7292.00
2022-10-25T09:57:50.966Z,5576.00
2022-10-25T09:58:50.986Z,4144.00
2022-10-25T09:59:50.966Z,4008.00
2022-10-25T10:00:50.933Z,6452.00
2022-10-25T10:01:51.008Z,8228.00
2022-10-25T10:02:51.032Z,7856.00
2022-10-25T10:03:53.939Z,9800.00
2022-10-25T10:04:50.847Z,8056.00
2022-10-25T10:05:50.826Z,7684.00
2022-10-25T10:06:50.809Z,7232.00
2022-10-25T10:07:50.960Z,7716.00
2022-10-25T10:08:50.813Z,7080.00
2022-10-25T10:09:50.772Z,7920.00
2022-10-25T10:10:50.751Z,7952.00
2022-10-25T10:11:50.736Z,9248.00
2022-10-25T10:12:50.747Z,7264.00
2022-10-25T10:13:50.785Z,6188.00
2022-10-25T10:14:50.677Z,5012.00
2022-10-25T10:15:50.664Z,4280.00
2022-10-25T10:16:50.646Z,3788.00
2022-10-25T10:17:50.621Z,3204.00
2022-10-25T10:18:50.644Z,2840.00
2022-10-25T10:19:51.589Z,3204.00
2022-10-25T10:20:50.587Z,3612.00
2022-10-25T10:21:50.558Z,4296.00
2022-10-25T10:22:50.633Z,5156.00
2022-10-25T10:23:50.555Z,5344.00
2022-10-25T10:24:50.499Z,5176.00
2022-10-25T10:25:50.486Z,4660.00
2022-10-25T10:26:50.478Z,4820.00
2022-10-25T10:27:50.451Z,4460.00
2022-10-25T10:28:50.491Z,4448.00
2022-10-25T10:29:50.407Z,4156.00
2022-10-25T10:30:50.411Z,3912.00
2022-10-25T10:31:50.402Z,4000.00
2022-10-25T10:32:52.705Z,4144.00
2022-10-25T10:33:50.402Z,4040.00
2022-10-25T10:34:50.335Z,4224.00
2022-10-25T10:35:50.311Z,3916.00
2022-10-25T10:36:50.305Z,3580.00
2022-10-25T10:37:50.275Z,3152.00
2022-10-25T10:38:51.287Z,3280.00
2022-10-25T10:39:50.244Z,3744.00
2022-10-25T10:40:51.730Z,3672.00
2022-10-25T10:41:50.219Z,3444.00
2022-10-25T10:42:50.311Z,3404.00
2022-10-25T10:43:50.203Z,3556.00
2022-10-25T10:44:50.152Z,3844.00
2022-10-25T10:45:50.185Z,3820.00
2022-10-25T10:46:50.125Z,3760.00
2022-10-25T10:47:50.115Z,3900.00
2022-10-25T10:48:50.121Z,4196.00
2022-10-25T10:49:50.079Z,4952.00
2022-10-25T10:50:50.051Z,5568.00
2022-10-25T10:51:50.043Z,6332.00
2022-10-25T10:52:50.852Z,7196.00
2022-10-25T10:53:50.049Z,7696.00
2022-10-25T10:54:49.986Z,7960.00
2022-10-25T10:55:49.977Z,7496.00
2022-10-25T10:56:49.948Z,7056.00
2022-10-25T10:57:49.930Z,6388.00
2022-10-25T10:58:53.511Z,5784.00
2022-10-25T10:59:50.908Z,4772.00
2022-10-25T11:00:49.901Z,4192.00
2022-10-25T11:01:49.990Z,3996.00
2022-10-25T11:02:50.206Z,3924.00
2022-10-25T11:03:59.290Z,4008.00
2022-10-25T11:04:50.822Z,4072.00
2022-10-25T11:05:49.800Z,3976.00
2022-10-25T11:06:49.795Z,3416.00
2022-10-25T11:07:50.000Z,3008.00
2022-10-25T11:08:49.790Z,2888.00
2022-10-25T11:09:49.742Z,2676.00
2022-10-25T11:10:49.726Z,2576.00
2022-10-25T11:11:49.707Z,2648.00
2022-10-25T11:12:49.737Z,2760.00
2022-10-25T11:13:49.700Z,2836.00
2022-10-25T11:14:49.657Z,2984.00
2022-10-25T11:15:49.641Z,3300.00
2022-10-25T11:16:49.666Z,3480.00
2022-10-25T11:17:50.048Z,3324.00
2022-10-25T11:18:49.621Z,3620.00
2022-10-25T11:19:49.571Z,3592.00
2022-10-25T11:20:49.578Z,3976.00
2022-10-25T11:21:49.549Z,4240.00
2022-10-25T11:22:49.547Z,4720.00
2022-10-25T11:23:49.548Z,5576.00
2022-10-25T11:24:49.504Z,6624.00
2022-10-25T11:25:49.484Z,7748.00
2022-10-25T11:26:49.477Z,9024.00
2022-10-25T11:27:49.817Z,8832.00
2022-10-25T11:28:49.456Z,8536.00
2022-10-25T11:29:49.404Z,8640.00
2022-10-25T11:30:49.390Z,8732.00
2022-10-25T11:31:49.385Z,8492.00
2022-10-25T11:32:51.258Z,8368.00
2022-10-25T11:33:49.403Z,8440.00
2022-10-25T11:34:49.356Z,8608.00
2022-10-25T11:35:49.308Z,8604.00
2022-10-25T11:36:49.281Z,8592.00
2022-10-25T11:37:49.623Z,8728.00
2022-10-25T11:38:49.257Z,9224.00
2022-10-25T11:39:49.267Z,9736.00
2022-10-25T11:40:49.223Z,9968.00
2022-10-25T11:41:49.207Z,10392.00
2022-10-25T11:42:49.709Z,10496.00
2022-10-25T11:43:49.169Z,10656.00
2022-10-25T11:44:49.176Z,11644.00
2022-10-25T11:45:49.162Z,12272.00
2022-10-25T11:46:49.122Z,12956.00
2022-10-25T11:47:49.097Z,13516.00
2022-10-25T11:48:49.078Z,12516.00
2022-10-25T11:49:51.494Z,11964.00
2022-10-25T11:50:50.058Z,11692.00
2022-10-25T11:51:49.028Z,11860.00
2022-10-25T11:52:52.108Z,12384.00
2022-10-25T11:53:50.002Z,12360.00
2022-10-25T11:54:49.013Z,11964.00
2022-10-25T11:55:48.966Z,12532.00
2022-10-25T11:56:48.960Z,10752.00
2022-10-25T11:57:48.939Z,10360.00
2022-10-25T11:58:48.919Z,10244.00
2022-10-25T11:59:48.922Z,9440.00
2022-10-25T12:00:48.882Z,8252.00
2022-10-25T12:01:48.894Z,8080.00
2022-10-25T12:02:49.301Z,7616.00
2022-10-25T12:03:48.842Z,7716.00
2022-10-25T12:04:48.858Z,8448.00
2022-10-25T12:05:48.941Z,9196.00
2022-10-25T12:06:48.771Z,9648.00
2022-10-25T12:07:48.786Z,9952.00
2022-10-25T12:08:48.783Z,9480.00
2022-10-25T12:09:48.737Z,9204.00
2022-10-25T12:10:48.790Z,9644.00
2022-10-25T12:11:48.707Z,9880.00
2022-10-25T12:12:48.941Z,10196.00
2022-10-25T12:13:48.680Z,10536.00
2022-10-25T12:14:48.664Z,9596.00
2022-10-25T12:15:48.627Z,8788.00
2022-10-25T12:16:48.607Z,8232.00
2022-10-25T12:17:48.589Z,8228.00
2022-10-25T12:18:48.610Z,7632.00
2022-10-25T12:19:48.548Z,7508.00
2022-10-25T12:20:48.536Z,8068.00
2022-10-25T12:21:48.587Z,8444.00
2022-10-25T12:22:48.779Z,8688.00
2022-10-25T12:23:48.525Z,8864.00
2022-10-25T12:24:48.486Z,8588.00
2022-10-25T12:25:48.497Z,8420.00
2022-10-25T12:26:48.455Z,8036.00
2022-10-25T12:27:51.032Z,7748.00
2022-10-25T12:28:48.456Z,7752.00
2022-10-25T12:29:48.412Z,7812.00
2022-10-25T12:30:48.369Z,7956.00
2022-10-25T12:31:48.359Z,8312.00
2022-10-25T12:32:48.759Z,8832.00
2022-10-25T12:33:48.348Z,9100.00
2022-10-25T12:34:48.306Z,9164.00
2022-10-25T12:35:48.301Z,8836.00
2022-10-25T12:36:48.268Z,8964.00